createdAt,value
2022-08-15T00:01:25.162Z,44.87
2022-08-15T00:04:46.745Z,45.21
2022-08-15T00:08:51.161Z,45.25
2022-08-15T00:11:48.095Z,45.60
2022-08-15T00:15:09.319Z,45.42
2022-08-15T00:18:31.157Z,45.74
2022-08-15T00:21:55.176Z,45.71
2022-08-15T00:25:16.132Z,45.53
2022-08-15T00:28:35.869Z,45.62
2022-08-15T00:31:57.168Z,45.44
2022-08-15T00:35:39.523Z,45.36
2022-08-15T00:39:00.557Z,45.36
2022-08-15T00:42:28.161Z,45.63
2022-08-15T00:45:55.929Z,45.59
2022-08-15T00:49:18.154Z,45.91
2022-08-15T00:52:44.193Z,45.92
2022-08-15T00:56:05.154Z,45.98
2022-08-15T00:59:31.768Z,46.30
2022-08-15T01:02:52.383Z,46.28
2022-08-15T01:06:16.149Z,46.25
2022-08-15T01:09:37.204Z,46.32
2022-08-15T01:13:18.884Z,46.56
2022-08-15T01:16:50.195Z,46.58
2022-08-15T01:20:24.648Z,46.81
2022-08-15T01:24:01.155Z,47.08
2022-08-15T01:27:22.214Z,47.16
2022-08-15T01:31:03.231Z,47.16
2022-08-15T01:34:26.197Z,47.55
2022-08-15T01:37:57.170Z,47.42
2022-08-15T01:41:36.455Z,47.78
2022-08-15T01:45:17.216Z,48.09
2022-08-15T01:48:45.181Z,48.37
2022-08-15T01:52:59.894Z,49.11
2022-08-15T01:56:33.034Z,49.13
2022-08-15T01:59:57.419Z,49.65
2022-08-15T02:03:27.198Z,49.68
2022-08-15T02:06:43.229Z,50.09
2022-08-15T02:10:21.536Z,50.44
2022-08-15T02:13:43.255Z,50.56
2022-08-15T02:17:05.195Z,50.75
2022-08-15T02:20:31.186Z,51.09
2022-08-15T02:24:00.188Z,51.24
2022-08-15T02:27:21.197Z,51.54
2022-08-15T02:30:44.216Z,51.69
2022-08-15T02:34:16.946Z,51.84
2022-08-15T02:37:39.404Z,52.23
2022-08-15T02:41:01.207Z,52.29
2022-08-15T02:44:24.221Z,52.45
2022-08-15T02:47:53.190Z,52.71
2022-08-15T02:51:15.194Z,52.81
2022-08-15T02:54:59.141Z,52.96
2022-08-15T02:58:29.694Z,52.79
2022-08-15T03:01:53.271Z,52.81
2022-08-15T03:05:18.216Z,52.63
2022-08-15T03:08:39.202Z,52.69
2022-08-15T03:12:07.593Z,52.54
2022-08-15T03:16:00.190Z,52.13
2022-08-15T03:19:27.245Z,52.24
2022-08-15T03:23:00.207Z,52.27
2022-08-15T03:26:46.248Z,52.19
2022-08-15T03:30:06.235Z,52.03
2022-08-15T03:33:54.697Z,52.24
2022-08-15T03:37:09.215Z,51.80
2022-08-15T03:40:30.540Z,51.44
2022-08-15T03:43:55.221Z,51.73
2022-08-15T03:47:16.875Z,51.67
2022-08-15T03:50:42.943Z,51.44
2022-08-15T03:54:25.178Z,51.43
2022-08-15T03:58:01.910Z,51.40
2022-08-15T04:01:30.684Z,51.30
2022-08-15T04:04:52.225Z,51.50
2022-08-15T04:08:43.962Z,51.10
2022-08-15T04:11:55.254Z,51.42
2022-08-15T04:15:27.248Z,51.48
2022-08-15T04:18:52.250Z,51.52
2022-08-15T04:22:28.969Z,51.33
2022-08-15T04:26:08.122Z,51.25
2022-08-15T04:29:29.254Z,51.30
2022-08-15T04:32:58.307Z,51.23
2022-08-15T04:36:30.850Z,51.08
2022-08-15T04:39:56.302Z,50.60
2022-08-15T04:43:19.288Z,50.31
2022-08-15T04:46:41.255Z,49.83
2022-08-15T04:50:03.240Z,49.40
2022-08-15T04:53:30.956Z,49.73
2022-08-15T04:56:52.402Z,49.33
2022-08-15T05:00:14.343Z,49.24
2022-08-15T05:03:54.617Z,49.32
2022-08-15T05:07:17.526Z,49.17
2022-08-15T05:10:38.289Z,49.03
2022-08-15T05:14:03.288Z,49.27
2022-08-15T05:17:25.238Z,49.19
2022-08-15T05:21:07.284Z,49.08
2022-08-15T05:24:31.256Z,49.09
2022-08-15T05:27:52.292Z,48.86
2022-08-15T05:31:19.243Z,48.85
2022-08-15T05:34:43.207Z,48.29
2022-08-15T05:38:22.552Z,48.00
2022-08-15T05:41:53.477Z,47.45
2022-08-15T05:45:49.813Z,47.35
2022-08-15T05:49:48.350Z,46.89
2022-08-15T05:53:35.260Z,46.49
2022-08-15T05:57:04.265Z,46.13
2022-08-15T06:00:21.372Z,45.77
2022-08-15T06:03:41.604Z,45.47
2022-08-15T06:07:05.298Z,45.47
2022-08-15T06:10:38.326Z,45.19
2022-08-15T06:14:13.697Z,45.32
2022-08-15T06:17:42.333Z,44.96
2022-08-15T06:21:41.291Z,44.66
2022-08-15T06:25:37.536Z,44.56
2022-08-15T06:29:12.284Z,44.26
2022-08-15T06:32:45.532Z,43.91
2022-08-15T06:36:30.702Z,43.73
2022-08-15T06:40:43.286Z,43.08
2022-08-15T06:44:04.299Z,42.43
2022-08-15T06:47:37.375Z,41.78
2022-08-15T06:51:05.319Z,41.44
2022-08-15T06:54:43.268Z,41.35
2022-08-15T06:58:56.368Z,40.76
2022-08-15T07:02:40.143Z,40.72
2022-08-15T07:06:08.315Z,40.38
2022-08-15T07:09:54.276Z,39.96
2022-08-15T07:13:27.385Z,39.99
2022-08-15T07:16:58.316Z,39.56
2022-08-15T07:20:38.578Z,39.68
2022-08-15T07:24:40.310Z,39.66
2022-08-15T07:28:09.413Z,39.15
2022-08-15T07:32:17.945Z,39.25
2022-08-15T07:35:28.330Z,38.85
2022-08-15T07:38:54.449Z,38.56
2022-08-15T07:42:59.889Z,38.76
2022-08-15T07:46:55.967Z,38.75
2022-08-15T07:50:32.632Z,38.33
2022-08-15T07:54:34.838Z,38.12
2022-08-15T07:57:56.359Z,38.00
2022-08-15T08:01:43.569Z,37.72
2022-08-15T08:05:06.318Z,37.76
2022-08-15T08:09:35.579Z,37.52
2022-08-15T08:13:01.357Z,37.21
2022-08-15T08:17:01.685Z,36.92
2022-08-15T08:20:30.320Z,36.50
2022-08-15T08:24:08.486Z,36.77
2022-08-15T08:27:53.680Z,36.10
2022-08-15T08:31:19.350Z,35.87
2022-08-15T08:34:57.740Z,35.42
2022-08-15T08:39:05.030Z,34.61
2022-08-15T08:42:52.875Z,34.40
2022-08-15T08:46:30.597Z,33.86
2022-08-15T08:50:33.101Z,33.19
2022-08-15T08:54:09.023Z,32.89
2022-08-15T08:57:35.479Z,32.01
2022-08-15T09:01:06.361Z,31.50
2022-08-15T09:04:32.366Z,31.27
2022-08-15T09:08:00.679Z,31.18
2022-08-15T09:11:26.350Z,30.76
2022-08-15T09:15:01.421Z,30.20
2022-08-15T09:18:45.285Z,29.97
2022-08-15T09:22:10.333Z,29.78
2022-08-15T09:25:32.319Z,29.42
2022-08-15T09:28:59.332Z,29.25
2022-08-15T09:32:31.368Z,29.33
2022-08-15T09:36:25.114Z,29.40
2022-08-15T09:39:50.347Z,29.59
2022-08-15T09:43:31.650Z,29.54
2022-08-15T09:47:30.393Z,29.45
2022-08-15T09:51:24.329Z,29.49
2022-08-15T09:54:56.336Z,28.98
2022-08-15T09:58:41.324Z,28.43
2022-08-15T10:02:36.176Z,27.78
2022-08-15T10:05:56.327Z,27.40
2022-08-15T10:09:10.349Z,27.34
2022-08-15T10:12:36.313Z,26.83
2022-08-15T10:16:01.367Z,26.61
2022-08-15T10:20:00.646Z,26.65
2022-08-15T10:23:27.366Z,25.80
2022-08-15T10:26:57.491Z,25.53
2022-08-15T10:30:51.261Z,25.23
2022-08-15T10:34:16.379Z,24.77
2022-08-15T10:37:59.428Z,24.34
2022-08-15T10:41:48.347Z,24.02
2022-08-15T10:45:18.344Z,23.60
2022-08-15T10:49:06.360Z,23.47
2022-08-15T10:52:37.354Z,23.10
2022-08-15T10:55:59.878Z,23.04
2022-08-15T10:59:31.351Z,22.86
2022-08-15T11:03:10.414Z,23.45
2022-08-15T11:06:35.354Z,23.72
2022-08-15T11:09:56.361Z,23.87
2022-08-15T11:13:26.348Z,24.09
2022-08-15T11:16:56.824Z,24.37
2022-08-15T11:20:24.354Z,24.65
2022-08-15T11:23:52.436Z,24.43
2022-08-15T11:27:33.433Z,24.78
2022-08-15T11:30:55.338Z,24.81
2022-08-15T11:34:37.115Z,24.92
2022-08-15T11:38:01.379Z,25.06
2022-08-15T11:41:50.450Z,24.72
2022-08-15T11:45:49.907Z,24.70
2022-08-15T11:49:44.534Z,24.63
2022-08-15T11:53:09.695Z,24.55
2022-08-15T11:56:47.512Z,24.87
2022-08-15T12:00:25.477Z,25.11
2022-08-15T12:04:42.352Z,24.68
2022-08-15T12:07:35.415Z,24.76
2022-08-15T12:10:58.398Z,24.94
2022-08-15T12:14:38.390Z,25.21
2022-08-15T12:18:32.216Z,25.22
2022-08-15T12:22:45.263Z,25.47
2022-08-15T12:25:51.507Z,25.41
2022-08-15T12:29:15.353Z,25.23
2022-08-15T12:32:38.572Z,24.90
2022-08-15T12:36:01.033Z,24.83
2022-08-15T12:39:22.428Z,24.88
2022-08-15T12:42:54.972Z,25.07
2022-08-15T12:46:19.913Z,24.71
2022-08-15T12:49:46.971Z,22.60
2022-08-15T12:53:11.068Z,20.50
2022-08-15T12:56:44.937Z,19.52
2022-08-15T13:00:08.377Z,18.87
2022-08-15T13:04:02.368Z,18.03
2022-08-15T13:07:31.688Z,17.84
2022-08-15T13:11:01.138Z,18.02
2022-08-15T13:14:27.400Z,18.08
2022-08-15T13:17:47.302Z,18.07
2022-08-15T13:21:37.954Z,17.93
2022-08-15T13:25:01.404Z,17.67
2022-08-15T13:28:22.399Z,17.08
2022-08-15T13:31:54.407Z,16.61
2022-08-15T13:35:15.462Z,16.08
2022-08-15T13:38:39.397Z,15.87
2022-08-15T13:42:05.112Z,15.75
2022-08-15T13:45:58.356Z,15.75
2022-08-15T13:49:26.446Z,15.23
2022-08-15T13:52:50.883Z,15.13
2022-08-15T13:56:30.459Z,14.80
2022-08-15T13:59:51.407Z,14.89
2022-08-15T14:03:32.711Z,14.87
2022-08-15T14:06:56.404Z,14.94
2022-08-15T14:10:59.817Z,14.71
2022-08-15T14:13:59.437Z,14.43
2022-08-15T14:17:24.432Z,13.99
2022-08-15T14:20:45.429Z,14.35
2022-08-15T14:24:21.101Z,15.33
2022-08-15T14:27:42.352Z,17.01
2022-08-15T14:31:20.695Z,16.57
2022-08-15T14:34:57.331Z,15.85
2022-08-15T14:42:00.382Z,14.38
2022-08-15T14:46:34.099Z,14.26
2022-08-15T14:49:08.629Z,13.67
2022-08-15T14:52:25.024Z,13.61
2022-08-15T14:55:49.446Z,13.47
2022-08-15T14:59:13.421Z,13.95
2022-08-15T15:02:38.652Z,14.06
2022-08-15T15:06:06.851Z,14.42
2022-08-15T15:09:40.433Z,14.67
2022-08-15T15:13:02.434Z,14.52
2022-08-15T15:16:42.222Z,14.43
2022-08-15T15:20:06.431Z,14.46
2022-08-15T15:23:42.416Z,14.82
2022-08-15T15:27:03.417Z,15.07
2022-08-15T15:30:20.430Z,15.00
2022-08-15T15:33:43.302Z,15.04
2022-08-15T15:37:05.009Z,15.16
2022-08-15T15:40:29.564Z,15.18
2022-08-15T15:43:50.410Z,15.76
2022-08-15T15:47:25.493Z,16.03
2022-08-15T15:50:48.770Z,15.94
2022-08-15T15:54:35.446Z,16.28
2022-08-15T15:58:03.136Z,17.11
2022-08-15T16:02:36.880Z,17.34
2022-08-15T16:05:11.453Z,17.61
2022-08-15T16:08:37.156Z,19.75
2022-08-15T16:12:59.373Z,21.48
2022-08-15T16:16:29.523Z,23.19
2022-08-15T16:20:41.708Z,24.29
2022-08-15T16:24:17.379Z,25.19
2022-08-15T16:27:45.546Z,25.50
2022-08-15T16:31:29.463Z,26.21
2022-08-15T16:35:01.456Z,26.81
2022-08-15T16:39:06.057Z,27.30
2022-08-15T16:42:41.066Z,28.10
2022-08-15T16:46:46.462Z,28.25
2022-08-15T16:50:25.464Z,28.55
2022-08-15T16:53:57.829Z,28.78
2022-08-15T16:57:31.508Z,29.36
2022-08-15T17:01:21.550Z,29.66
2022-08-15T17:05:06.706Z,29.93
2022-08-15T17:08:50.493Z,30.59
2022-08-15T17:12:24.200Z,30.93
2022-08-15T17:15:53.466Z,31.49
2022-08-15T17:19:23.456Z,31.86
2022-08-15T17:23:00.503Z,32.49
2022-08-15T17:27:03.603Z,32.41
2022-08-15T17:30:54.096Z,32.86
2022-08-15T17:34:40.247Z,32.78
2022-08-15T17:38:03.498Z,33.49
2022-08-15T17:41:29.456Z,33.49
2022-08-15T17:45:27.779Z,33.72
2022-08-15T17:48:51.424Z,33.74
2022-08-15T17:52:29.463Z,34.19
2022-08-15T17:56:00.477Z,34.69
2022-08-15T17:59:23.466Z,34.75
2022-08-15T18:02:45.812Z,35.36
2022-08-15T18:06:11.092Z,35.82
2022-08-15T18:10:30.805Z,36.06
2022-08-15T18:13:12.811Z,36.22
2022-08-15T18:16:36.491Z,36.21
2022-08-15T18:19:57.470Z,36.74
2022-08-15T18:23:53.404Z,37.00
2022-08-15T18:27:14.475Z,36.80
2022-08-15T18:30:40.956Z,37.23
2022-08-15T18:34:17.610Z,37.25
2022-08-15T18:37:48.651Z,37.33
2022-08-15T18:41:17.502Z,37.64
2022-08-15T18:44:56.471Z,37.96
2022-08-15T18:48:35.453Z,38.08
2022-08-15T18:52:11.145Z,38.50
2022-08-15T18:55:43.945Z,38.23
2022-08-15T18:59:06.509Z,38.46
2022-08-15T19:02:37.502Z,38.92
2022-08-15T19:05:58.489Z,39.12
2022-08-15T19:09:29.514Z,38.91
2022-08-15T19:13:06.493Z,38.91
2022-08-15T19:16:34.915Z,39.26
2022-08-15T19:20:26.308Z,39.23
2022-08-15T19:23:48.559Z,39.72
2022-08-15T19:27:41.772Z,39.98
2022-08-15T19:31:08.875Z,40.23
2022-08-15T19:34:52.523Z,40.05
2022-08-15T19:38:28.497Z,40.35
2022-08-15T19:41:57.552Z,40.58
2022-08-15T19:45:23.498Z,40.90
2022-08-15T19:49:09.517Z,41.19
2022-08-15T19:52:56.543Z,41.37
2022-08-15T19:56:29.530Z,41.43
2022-08-15T20:00:17.172Z,41.78
2022-08-15T20:04:37.855Z,41.62
2022-08-15T20:07:52.795Z,41.91
2022-08-15T20:11:17.523Z,42.04
2022-08-15T20:14:51.704Z,41.87
2022-08-15T20:18:29.303Z,42.18
2022-08-15T20:22:01.978Z,42.51
2022-08-15T20:25:43.544Z,42.55
2022-08-15T20:29:28.224Z,42.70
2022-08-15T20:33:17.111Z,42.76
2022-08-15T20:36:41.523Z,42.92
2022-08-15T20:40:04.602Z,42.97
2022-08-15T20:43:43.043Z,43.29
2022-08-15T20:47:11.833Z,43.59
2022-08-15T20:50:35.731Z,43.63
2022-08-15T20:53:59.546Z,43.87
2022-08-15T20:57:31.709Z,44.04
2022-08-15T21:01:32.972Z,43.85
2022-08-15T21:04:54.540Z,43.95
2022-08-15T21:08:26.540Z,43.97
2022-08-15T21:11:53.543Z,44.39
2022-08-15T21:16:04.920Z,44.42
2022-08-15T21:19:36.617Z,44.45
2022-08-15T21:22:56.527Z,44.24
2022-08-15T21:26:51.710Z,44.29
2022-08-15T21:31:01.317Z,44.53
2022-08-15T21:34:32.198Z,44.79
2022-08-15T21:38:01.554Z,44.90
2022-08-15T21:41:57.547Z,45.03
2022-08-15T21:45:24.538Z,45.13
2022-08-15T21:48:54.544Z,45.08
2022-08-15T21:52:26.027Z,45.21
2022-08-15T21:55:52.541Z,45.43
2022-08-15T22:00:19.968Z,45.59
2022-08-15T22:03:40.624Z,45.77
2022-08-15T22:07:01.570Z,45.87
2022-08-15T22:10:29.575Z,46.01
2022-08-15T22:14:01.539Z,46.04
2022-08-15T22:17:29.870Z,46.06
2022-08-15T22:20:53.543Z,45.99
2022-08-15T22:24:14.554Z,46.05
2022-08-15T22:27:38.568Z,46.34
2022-08-15T22:31:01.570Z,46.33
2022-08-15T22:34:24.539Z,46.43
2022-08-15T22:37:47.135Z,46.57
2022-08-15T22:41:08.559Z,46.69
2022-08-15T22:44:40.567Z,46.55
2022-08-15T22:48:19.619Z,46.58
2022-08-15T22:52:04.558Z,46.53
2022-08-15T22:55:41.572Z,46.31
2022-08-15T22:59:06.019Z,46.36
2022-08-15T23:02:31.567Z,46.40
2022-08-15T23:05:54.599Z,46.60
2022-08-15T23:09:20.584Z,46.65
2022-08-15T23:12:45.589Z,46.65
2022-08-15T23:16:33.004Z,46.52
2022-08-15T23:20:00.796Z,46.38
2022-08-15T23:23:29.576Z,46.24
2022-08-15T23:26:59.965Z,46.39
2022-08-15T23:30:30.963Z,46.38
2022-08-15T23:34:03.579Z,46.53
2022-08-15T23:37:38.586Z,46.62
2022-08-15T23:41:25.576Z,46.61
2022-08-15T23:44:48.580Z,46.53
2022-08-15T23:48:11.650Z,46.16
2022-08-15T23:51:32.599Z,46.31
2022-08-15T23:54:56.587Z,46.26
2022-08-15T23:58:18.061Z,46.17
